createdAt,value
2023-04-03T00:05:00.004Z,22.5
2023-04-03T00:10:50.522Z,22.5
2023-04-03T00:16:41.557Z,22.5
2023-04-03T00:22:34.551Z,22.5
2023-04-03T00:28:25.329Z,22.5
2023-04-03T00:34:17.375Z,22.6
2023-04-03T00:39:53.914Z,22.6
2023-04-03T00:45:45.561Z,22.6
2023-04-03T00:51:21.838Z,22.6
2023-04-03T00:56:57.703Z,22.5
2023-04-03T01:02:50.083Z,22.5
2023-04-03T01:08:41.420Z,22.4
2023-04-03T01:14:33.328Z,22.4
2023-04-03T01:20:24.407Z,22.4
2023-04-03T01:26:15.785Z,22.4
2023-04-03T01:32:07.597Z,22.4
2023-04-03T01:37:59.104Z,22.4
2023-04-03T01:43:50.333Z,22.4
2023-04-03T01:49:41.791Z,22.4
2023-04-03T01:55:32.979Z,22.4
2023-04-03T02:01:25.015Z,22.4
2023-04-03T02:07:18.504Z,22.4
2023-04-03T02:13:10.545Z,22.3
2023-04-03T02:19:02.349Z,22.3
2023-04-03T02:24:53.122Z,22.3
2023-04-03T02:36:20.385Z,22.3
2023-04-03T02:42:11.761Z,22.3
2023-04-03T02:48:03.398Z,22.3
2023-04-03T02:53:55.193Z,22.3
2023-04-03T02:59:48.442Z,22.3
2023-04-03T03:05:25.401Z,22.3
2023-04-03T03:11:15.922Z,22.3
2023-04-03T03:17:07.717Z,22.3
2023-04-03T03:22:59.311Z,22.3
2023-04-03T03:28:50.347Z,22.2
2023-04-03T03:34:42.419Z,22.2
2023-04-03T03:40:34.420Z,22.2
2023-04-03T03:51:48.180Z,22.3
2023-04-03T03:57:39.835Z,22.2
2023-04-03T04:03:32.780Z,22.2
2023-04-03T04:09:24.653Z,22.2
2023-04-03T04:20:35.856Z,22.2
2023-04-03T04:26:26.780Z,22.2
2023-04-03T04:32:17.928Z,22.2
2023-04-03T04:38:09.679Z,22.2
2023-04-03T04:44:00.901Z,22.2
2023-04-03T04:49:54.872Z,22.2
2023-04-03T04:55:52.997Z,22.2
2023-04-03T05:01:45.842Z,22.1
2023-04-03T05:13:14.145Z,22.1
2023-04-03T05:19:05.831Z,22.1
2023-04-03T05:24:56.686Z,22.2
2023-04-03T05:30:49.467Z,22.1
2023-04-03T05:36:42.635Z,22.2
2023-04-03T05:42:35.604Z,22.2
2023-04-03T05:48:29.351Z,22.2
2023-04-03T05:54:21.332Z,22.2
2023-04-03T06:00:13.964Z,22.2
2023-04-03T06:06:09.186Z,22.2
2023-04-03T06:12:02.019Z,22.2
2023-04-03T06:17:53.281Z,22.2
2023-04-03T06:23:44.741Z,22.2
2023-04-03T06:29:36.182Z,22.2
2023-04-03T06:35:30.373Z,22.2
2023-04-03T06:41:21.874Z,22.2
2023-04-03T06:47:15.031Z,22.2
2023-04-03T06:53:07.726Z,22.1
2023-04-03T06:58:59.161Z,22.1
2023-04-03T07:04:52.238Z,22.1
2023-04-03T07:10:44.027Z,22.2
2023-04-03T07:16:35.064Z,22.2
2023-04-03T07:22:27.473Z,22.2
2023-04-03T07:28:24.825Z,22.2
2023-04-03T07:34:16.719Z,22.2
2023-04-03T07:40:08.666Z,22.2
2023-04-03T07:46:00.111Z,22.2
2023-04-03T07:51:36.249Z,22.2
2023-04-03T07:57:29.253Z,22.3
2023-04-03T08:03:06.497Z,22.2
2023-04-03T08:09:13.493Z,22.3
2023-04-03T08:15:05.609Z,22.3
2023-04-03T08:20:48.915Z,22.3
2023-04-03T08:26:53.701Z,22.3
2023-04-03T08:32:30.781Z,22.3
2023-04-03T08:38:22.564Z,22.3
2023-04-03T08:44:14.962Z,22.3
2023-04-03T08:50:10.666Z,22.3
2023-04-03T08:56:06.319Z,22.4
2023-04-03T09:01:58.983Z,22.4
2023-04-03T09:07:52.649Z,22.4
2023-04-03T09:13:44.607Z,22.4
2023-04-03T09:19:50.679Z,22.4
2023-04-03T09:25:48.817Z,22.4
2023-04-03T09:31:50.702Z,22.4
2023-04-03T09:43:45.100Z,22.4
2023-04-03T09:49:46.937Z,22.4
2023-04-03T09:55:41.057Z,22.4
2023-04-03T10:01:45.802Z,22.4
2023-04-03T10:07:58.248Z,22.4
2023-04-03T10:14:05.906Z,22.4
2023-04-03T10:20:13.332Z,22.4
2023-04-03T10:26:14.650Z,22.3
2023-04-03T10:32:07.800Z,22.4
2023-04-03T10:38:08.024Z,22.4
2023-04-03T10:44:12.833Z,22.4
2023-04-03T10:49:59.247Z,22.4
2023-04-03T10:55:51.609Z,22.3
2023-04-03T11:01:56.440Z,22.3
2023-04-03T11:07:37.225Z,22.3
2023-04-03T11:13:14.457Z,22.3
2023-04-03T11:19:04.340Z,22.4
2023-04-03T11:24:53.758Z,22.4
2023-04-03T11:30:39.803Z,22.3
2023-04-03T11:36:29.961Z,22.4
2023-04-03T11:42:27.049Z,22.3
2023-04-03T11:48:21.159Z,22.3
2023-04-03T11:54:48.881Z,22.3
2023-04-03T12:01:23.685Z,22.3
2023-04-03T12:08:06.329Z,22.3
2023-04-03T12:14:26.348Z,22.3
2023-04-03T12:20:57.004Z,22.3
2023-04-03T12:27:10.958Z,22.3
2023-04-03T12:33:35.669Z,22.3
2023-04-03T12:40:06.929Z,22.2
2023-04-03T12:46:35.365Z,22.3
2023-04-03T12:52:46.466Z,22.3
2023-04-03T12:59:13.747Z,22.2
2023-04-03T13:05:39.472Z,22.2
2023-04-03T13:12:07.314Z,22.2
2023-04-03T13:18:37.247Z,22.2
2023-04-03T13:25:14.864Z,22.2
2023-04-03T13:31:24.404Z,22.2
2023-04-03T13:37:14.626Z,22.2
2023-04-03T13:42:59.966Z,22.2
2023-04-03T13:48:55.501Z,22.2
2023-04-03T13:54:39.651Z,22.2
2023-04-03T14:00:25.756Z,22.1
2023-04-03T14:05:46.654Z,22.1
2023-04-03T14:11:32.241Z,22.1
2023-04-03T14:17:24.493Z,22.1
2023-04-03T14:23:03.086Z,22.1
2023-04-03T14:28:39.657Z,22.1
2023-04-03T14:34:27.181Z,22.1
2023-04-03T14:40:04.006Z,22.1
2023-04-03T14:45:46.896Z,22.1
2023-04-03T14:52:00.119Z,22.1
2023-04-03T14:57:49.355Z,22.1
2023-04-03T15:03:27.007Z,22.1
2023-04-03T15:09:06.401Z,22.1
2023-04-03T15:15:01.005Z,22.1
2023-04-03T15:20:23.176Z,22.1
2023-04-03T15:25:44.681Z,22.1
2023-04-03T15:31:21.227Z,22.1
2023-04-03T15:37:23.457Z,22.1
2023-04-03T15:42:59.605Z,22
2023-04-03T15:48:35.585Z,22
2023-04-03T15:54:27.284Z,22
2023-04-03T16:00:03.603Z,21.9
2023-04-03T16:05:42.476Z,21.8
2023-04-03T16:11:18.861Z,21.5
2023-04-03T16:17:10.441Z,21.7
2023-04-03T16:22:31.751Z,21.8
2023-04-03T16:28:09.012Z,21.8
2023-04-03T16:34:03.541Z,21.9
2023-04-03T16:39:45.388Z,21.9
2023-04-03T16:45:41.194Z,21.9
2023-04-03T16:51:36.298Z,21.9
2023-04-03T16:57:15.046Z,21.9
2023-04-03T17:03:12.392Z,21.9
2023-04-03T17:09:08.288Z,21.9
2023-04-03T17:15:07.251Z,21.9
2023-04-03T17:21:02.461Z,21.9
2023-04-03T17:26:56.463Z,21.9
2023-04-03T17:32:36.537Z,21.9
2023-04-03T17:38:34.334Z,21.9
2023-04-03T17:44:31.096Z,21.9
2023-04-03T17:50:29.910Z,21.9
2023-04-03T17:56:29.420Z,21.9
2023-04-03T18:02:29.249Z,21.9
2023-04-03T18:08:12.259Z,21.8
2023-04-03T18:13:56.659Z,21.9
2023-04-03T18:20:12.951Z,21.8
2023-04-03T18:26:15.190Z,21.8
2023-04-03T18:32:18.457Z,21.8
2023-04-03T18:38:19.574Z,21.8
2023-04-03T18:44:03.468Z,21.8
2023-04-03T18:50:04.339Z,21.8
2023-04-03T18:56:04.693Z,21.8
2023-04-03T19:02:06.324Z,21.8
2023-04-03T19:08:07.047Z,21.8
2023-04-03T19:14:31.479Z,21.8
2023-04-03T19:20:32.814Z,21.8
2023-04-03T19:26:33.932Z,21.8
2023-04-03T19:32:34.021Z,21.8
2023-04-03T19:38:33.263Z,21.8
2023-04-03T19:44:25.953Z,21.8
2023-04-03T19:50:29.902Z,21.8
2023-04-03T19:56:21.535Z,21.8
2023-04-03T20:02:28.939Z,21.8
2023-04-03T20:08:21.410Z,21.7
2023-04-03T20:14:13.822Z,21.7
2023-04-03T20:20:07.306Z,21.7
2023-04-03T20:26:32.243Z,21.7
2023-04-03T20:32:10.870Z,21.7
2023-04-03T20:38:00.348Z,21.7
2023-04-03T20:43:54.002Z,21.7
2023-04-03T20:49:57.077Z,21.7
2023-04-03T20:55:48.750Z,21.7
2023-04-03T21:01:36.909Z,21.7
2023-04-03T21:07:32.930Z,21.7
2023-04-03T21:13:26.137Z,21.7
2023-04-03T21:19:17.770Z,21.7
2023-04-03T21:25:09.866Z,21.7
2023-04-03T21:31:02.310Z,21.8
2023-04-03T21:36:54.073Z,21.8
2023-04-03T21:42:30.346Z,21.8
2023-04-03T21:48:24.026Z,21.8
2023-04-03T21:54:15.436Z,21.8
2023-04-03T22:00:08.053Z,21.8
2023-04-03T22:06:11.459Z,21.8
2023-04-03T22:12:03.182Z,21.9
2023-04-03T22:17:39.195Z,21.9
2023-04-03T22:23:31.361Z,21.9
2023-04-03T22:29:22.261Z,21.8
2023-04-03T22:40:50.285Z,21.9
2023-04-03T22:46:30.950Z,21.9
2023-04-03T22:52:23.119Z,21.9
2023-04-03T22:58:20.915Z,21.9
2023-04-03T23:03:57.601Z,21.9
2023-04-03T23:09:49.709Z,21.9
2023-04-03T23:15:26.583Z,21.9
2023-04-03T23:21:02.988Z,21.9
2023-04-03T23:26:54.758Z,21.9
2023-04-03T23:32:46.497Z,21.9
2023-04-03T23:38:22.577Z,21.9
2023-04-03T23:44:16.010Z,21.9
2023-04-03T23:49:53.100Z,21.9
2023-04-03T23:55:29.364Z,21.9
